Time;durP1;ratioP1;P1;durP2;ratioP2;P2;SDS_P1;SDS_P2;PMS_P1;PMS_P2;Temp;Humidity;BMP_temperature;BMP_pressure;BME280_temperature;BME280_humidity;BME280_pressure;Samples;Min_cycle;Max_cycle;Signal;HPM_P1;HPM_P2
2021/05/28 00:01:58;;;;;;;6.13;2.27;;;10.80;82.90;;;;;;4995729;28;20498;-76
2021/05/28 00:04:24;;;;;;;9.50;2.60;;;10.80;83.10;;;;;;4995762;28;20042;-76
2021/05/28 00:06:50;;;;;;;6.70;2.43;;;10.80;83.00;;;;;;4996015;28;20034;-76
2021/05/28 00:09:15;;;;;;;7.17;2.90;;;10.70;83.10;;;;;;4997122;28;20031;-76
2021/05/28 00:11:41;;;;;;;7.03;3.00;;;10.70;83.30;;;;;;4994703;28;20041;-76
2021/05/28 00:14:07;;;;;;;6.40;3.00;;;10.70;83.40;;;;;;5010736;28;20030;-75
2021/05/28 00:16:33;;;;;;;6.87;3.20;;;10.60;83.40;;;;;;5012995;28;20114;-75
2021/05/28 00:18:59;;;;;;;10.10;3.50;;;10.60;83.50;;;;;;5012604;28;20121;-75
2021/05/28 00:21:24;;;;;;;9.40;3.37;;;10.50;83.70;;;;;;4998137;28;20390;-75
2021/05/28 00:23:50;;;;;;;11.30;3.17;;;10.50;83.80;;;;;;5011768;28;20050;-75
2021/05/28 00:26:16;;;;;;;6.90;2.80;;;10.50;83.80;;;;;;5012108;28;20037;-75
2021/05/28 00:28:47;;;;;;;11.10;3.50;;;10.50;83.80;;;;;;4994912;28;20026;-76
2021/05/28 00:31:13;;;;;;;7.70;3.03;;;10.60;83.90;;;;;;5012453;28;20077;-75
2021/05/28 00:33:38;;;;;;;8.27;2.80;;;10.50;83.70;;;;;;5014414;28;20030;-75
2021/05/28 00:36:04;;;;;;;6.73;3.00;;;10.50;83.80;;;;;;5013692;28;20042;-76
2021/05/28 00:38:30;;;;;;;5.47;2.83;;;10.50;84.00;;;;;;4979104;28;20065;-76
2021/05/28 00:40:55;;;;;;;7.73;3.10;;;10.40;83.80;;;;;;5013658;28;20070;-77
2021/05/28 00:43:21;;;;;;;8.57;2.97;;;10.40;84.00;;;;;;5011914;28;20057;-76
2021/05/28 00:45:47;;;;;;;4.33;2.33;;;10.40;84.20;;;;;;4995146;28;20042;-76
2021/05/28 00:48:12;;;;;;;8.53;2.77;;;10.30;84.20;;;;;;4995272;28;20385;-76
2021/05/28 00:50:38;;;;;;;7.07;2.87;;;10.30;84.20;;;;;;5011033;28;20044;-76
2021/05/28 00:53:04;;;;;;;5.30;2.13;;;10.30;84.30;;;;;;5013177;28;20101;-76
2021/05/28 00:55:30;;;;;;;4.93;2.73;;;10.30;84.20;;;;;;5011958;28;20034;-79
2021/05/28 00:57:56;;;;;;;5.43;2.40;;;10.30;84.30;;;;;;5010569;28;20034;-75
2021/05/28 01:00:26;;;;;;;6.87;2.77;;;10.20;84.40;;;;;;4995371;28;20029;-76
2021/05/28 01:02:52;;;;;;;4.90;2.57;;;10.30;84.40;;;;;;5012246;28;20022;-76
2021/05/28 01:05:18;;;;;;;6.73;2.67;;;10.20;84.50;;;;;;4995191;28;20128;-77
2021/05/28 01:07:43;;;;;;;6.93;2.80;;;10.20;84.40;;;;;;5011944;28;20447;-76
2021/05/28 01:10:11;;;;;;;6.87;2.93;;;10.20;84.40;;;;;;5011558;28;20390;-76
2021/05/28 01:12:36;;;;;;;8.80;2.70;;;10.20;84.50;;;;;;4988799;28;20095;-75
2021/05/28 01:15:03;;;;;;;5.47;2.50;;;10.20;84.50;;;;;;4989152;28;20042;-76
2021/05/28 01:17:29;;;;;;;11.60;2.60;;;10.20;84.50;;;;;;5010910;28;20141;-75
2021/05/28 01:19:54;;;;;;;7.63;2.43;;;10.20;84.50;;;;;;4978147;28;20121;-75
2021/05/28 01:22:20;;;;;;;6.37;2.43;;;10.10;84.40;;;;;;5012113;28;20040;-75
2021/05/28 01:24:49;;;;;;;8.77;2.63;;;10.10;84.50;;;;;;4964264;28;20565;-74
2021/05/28 01:27:17;;;;;;;7.57;2.57;;;10.10;84.50;;;;;;4991310;28;20022;-75
2021/05/28 01:29:43;;;;;;;6.57;2.53;;;10.10;84.40;;;;;;4991845;28;20026;-75
2021/05/28 01:32:09;;;;;;;9.93;3.17;;;9.90;84.40;;;;;;4991679;28;20027;-75
2021/05/28 01:34:35;;;;;;;12.07;3.10;;;9.90;84.60;;;;;;4991467;28;20034;-79
2021/05/28 01:37:01;;;;;;;6.57;2.70;;;9.90;84.80;;;;;;4992228;28;20030;-76
2021/05/28 01:39:27;;;;;;;5.60;2.47;;;10.00;84.90;;;;;;4975697;28;20117;-76
2021/05/28 01:41:53;;;;;;;7.10;2.40;;;10.00;84.90;;;;;;4981617;28;20137;-76
2021/05/28 01:44:18;;;;;;;7.27;3.00;;;10.00;84.80;;;;;;5012130;28;20432;-76
2021/05/28 01:46:44;;;;;;;8.03;3.10;;;10.00;84.70;;;;;;4993697;28;20180;-76
2021/05/28 01:49:09;;;;;;;5.30;2.83;;;10.00;84.60;;;;;;5012394;28;20054;-76
2021/05/28 01:51:36;;;;;;;8.33;3.30;;;10.00;84.60;;;;;;5011473;28;20029;-76
2021/05/28 01:54:01;;;;;;;6.73;3.30;;;9.90;84.60;;;;;;5010036;28;20025;-75
2021/05/28 01:56:27;;;;;;;5.47;2.70;;;9.80;84.50;;;;;;5011354;28;20050;-76
2021/05/28 01:58:54;;;;;;;5.10;2.70;;;9.80;84.70;;;;;;5011292;28;20033;-76
2021/05/28 02:01:20;;;;;;;7.17;3.53;;;9.80;84.80;;;;;;5010321;28;20027;-75
2021/05/28 02:03:46;;;;;;;6.03;2.87;;;9.80;84.80;;;;;;5011175;28;20018;-76
2021/05/28 02:06:11;;;;;;;6.50;2.80;;;9.80;84.90;;;;;;4975798;28;20030;-76
2021/05/28 02:08:37;;;;;;;7.47;3.33;;;9.80;84.80;;;;;;4958312;28;20530;-76
2021/05/28 02:11:03;;;;;;;8.77;3.00;;;9.80;84.70;;;;;;4991303;28;20026;-76
2021/05/28 02:13:29;;;;;;;6.10;2.90;;;9.70;84.70;;;;;;5006012;28;20042;-76
2021/05/28 02:15:54;;;;;;;7.47;3.70;;;9.70;84.80;;;;;;5009537;28;20096;-76
2021/05/28 02:18:22;;;;;;;6.80;3.17;;;9.70;85.00;;;;;;5010310;28;20038;-76
2021/05/28 02:20:48;;;;;;;6.67;3.50;;;9.70;85.00;;;;;;5008953;28;20037;-75
2021/05/28 02:23:14;;;;;;;8.73;3.30;;;9.70;84.90;;;;;;5009962;28;20053;-75
2021/05/28 02:25:39;;;;;;;5.60;3.60;;;9.80;84.90;;;;;;4993765;28;20046;-76
2021/05/28 02:28:05;;;;;;;11.03;3.60;;;9.70;84.90;;;;;;5009256;28;20033;-76
2021/05/28 02:30:31;;;;;;;9.70;3.40;;;9.70;84.90;;;;;;5009942;28;20037;-75
2021/05/28 02:32:57;;;;;;;5.23;3.07;;;9.70;84.90;;;;;;5009324;28;20026;-75
2021/05/28 02:35:23;;;;;;;6.73;3.60;;;9.70;84.90;;;;;;4993357;28;20030;-75
2021/05/28 02:37:48;;;;;;;8.60;4.20;;;9.70;84.90;;;;;;5010530;28;20030;-75
2021/05/28 02:40:14;;;;;;;7.87;3.60;;;9.70;84.90;;;;;;5010964;28;20476;-75
2021/05/28 02:42:40;;;;;;;8.13;3.70;;;9.70;84.80;;;;;;5009407;28;20541;-75
2021/05/28 02:45:07;;;;;;;5.13;3.20;;;9.70;84.70;;;;;;5009233;28;20034;-75
2021/05/28 02:47:33;;;;;;;7.13;3.60;;;9.70;84.70;;;;;;5009680;28;20034;-75
2021/05/28 02:49:59;;;;;;;9.13;3.63;;;9.70;84.70;;;;;;4976773;28;20037;-75
2021/05/28 02:52:25;;;;;;;7.20;3.40;;;9.70;84.60;;;;;;5009818;28;20038;-75
2021/05/28 02:54:51;;;;;;;8.90;4.10;;;9.70;84.60;;;;;;5010234;28;20022;-75
2021/05/28 02:57:17;;;;;;;9.63;4.17;;;9.70;84.60;;;;;;4993554;28;20041;-75
2021/05/28 02:59:42;;;;;;;8.50;4.13;;;9.70;84.50;;;;;;5010009;28;20128;-75
2021/05/28 03:02:08;;;;;;;6.93;3.60;;;9.70;84.70;;;;;;5010300;28;20036;-75
2021/05/28 03:04:33;;;;;;;8.50;3.47;;;9.70;84.60;;;;;;5010605;28;20032;-75
2021/05/28 03:06:59;;;;;;;5.23;3.33;;;9.60;84.50;;;;;;5010082;28;20038;-76
2021/05/28 03:09:25;;;;;;;6.43;3.57;;;9.60;84.50;;;;;;4993574;28;20038;-75
2021/05/28 03:11:50;;;;;;;6.93;3.33;;;9.60;84.40;;;;;;5008767;28;20374;-78
2021/05/28 03:14:17;;;;;;;4.83;3.80;;;9.60;84.30;;;;;;5011051;28;20475;-75
2021/05/28 03:16:43;;;;;;;8.70;3.60;;;9.60;84.40;;;;;;5011007;28;20113;-75
2021/05/28 03:19:25;;;;;;;7.67;3.90;;;9.60;84.30;;;;;;5009709;28;20217;-75
2021/05/28 03:24:34;;;;;;;6.77;4.20;;;9.60;84.40;;;;;;5009785;28;20061;-74
2021/05/28 03:27:00;;;;;;;8.97;4.17;;;9.60;84.50;;;;;;5008926;28;20034;-74
2021/05/28 03:29:26;;;;;;;9.73;4.10;;;9.60;84.40;;;;;;5011234;28;20088;-75
2021/05/28 03:31:52;;;;;;;9.33;4.30;;;9.60;84.60;;;;;;5010918;28;20073;-77
2021/05/28 03:34:17;;;;;;;8.53;5.00;;;9.50;84.50;;;;;;5009259;28;20038;-74
2021/05/28 03:36:43;;;;;;;7.60;5.07;;;9.50;84.80;;;;;;5010232;28;20033;-75
2021/05/28 03:39:09;;;;;;;12.23;7.17;;;9.50;84.90;;;;;;4989821;28;20455;-75
2021/05/28 03:41:34;;;;;;;16.10;10.00;;;9.40;85.20;;;;;;4992162;28;20034;-74
2021/05/28 03:44:00;;;;;;;16.40;10.00;;;9.50;85.20;;;;;;5009787;28;20467;-75
2021/05/28 03:46:26;;;;;;;16.20;10.83;;;9.50;85.20;;;;;;5012033;28;20040;-75
2021/05/28 03:48:51;;;;;;;15.20;10.20;;;9.40;84.90;;;;;;5014109;28;20036;-75
2021/05/28 03:51:17;;;;;;;20.93;13.27;;;9.30;84.90;;;;;;4996881;28;20033;-74
2021/05/28 03:53:43;;;;;;;22.80;12.33;;;9.20;85.20;;;;;;5011747;28;20117;-75
2021/05/28 03:56:08;;;;;;;19.77;13.40;;;9.10;85.20;;;;;;5012890;28;20045;-76
2021/05/28 03:58:34;;;;;;;16.20;11.77;;;9.00;85.50;;;;;;5014072;28;20034;-75
2021/05/28 04:01:00;;;;;;;24.70;17.87;;;9.00;85.50;;;;;;5012645;28;20060;-76
2021/05/28 04:03:25;;;;;;;30.77;22.17;;;9.00;85.80;;;;;;4996719;28;20022;-75
2021/05/28 04:05:51;;;;;;;35.43;24.53;;;9.10;85.80;;;;;;5012714;28;20041;-75
2021/05/28 04:08:17;;;;;;;33.17;23.10;;;9.30;85.70;;;;;;5012227;28;20045;-75
2021/05/28 04:10:43;;;;;;;29.07;20.97;;;9.40;85.20;;;;;;5012996;28;20030;-75
2021/05/28 04:13:08;;;;;;;32.93;22.23;;;9.60;85.00;;;;;;4995301;28;20029;-76
2021/05/28 04:15:34;;;;;;;30.60;19.90;;;9.70;84.90;;;;;;5012507;28;20033;-75
2021/05/28 04:18:00;;;;;;;27.27;18.83;;;9.80;84.40;;;;;;5012405;28;20034;-78
2021/05/28 04:20:26;;;;;;;30.80;20.00;;;9.90;84.20;;;;;;4996442;28;20025;-76
2021/05/28 04:22:51;;;;;;;25.13;16.77;;;10.00;84.00;;;;;;5011982;28;20374;-76
2021/05/28 04:25:17;;;;;;;30.33;20.87;;;10.10;83.70;;;;;;5028531;28;20465;-76
2021/05/28 04:27:42;;;;;;;28.80;19.30;;;10.10;83.70;;;;;;5013487;28;20148;-76
2021/05/28 04:30:09;;;;;;;20.90;14.90;;;10.20;83.70;;;;;;5029058;28;20030;-76
2021/05/28 04:32:34;;;;;;;17.30;11.33;;;10.20;83.40;;;;;;5029898;28;20502;-76
2021/05/28 04:35:00;;;;;;;24.97;18.70;;;10.20;83.30;;;;;;5029610;28;20092;-77
2021/05/28 04:37:26;;;;;;;24.83;17.80;;;9.90;83.70;;;;;;5013954;28;20030;-74
2021/05/28 04:39:51;;;;;;;22.13;15.47;;;10.00;84.30;;;;;;4996486;28;20050;-76
2021/05/28 04:42:17;;;;;;;23.13;15.43;;;10.00;84.30;;;;;;5014137;28;20038;-75
2021/05/28 04:44:43;;;;;;;27.37;19.37;;;10.10;84.40;;;;;;5016577;28;20061;-74
2021/05/28 04:47:08;;;;;;;31.87;21.33;;;10.10;84.40;;;;;;4982442;28;20042;-75
2021/05/28 04:49:34;;;;;;;27.90;16.23;;;10.20;84.70;;;;;;5016146;28;20061;-76
2021/05/28 04:52:00;;;;;;;28.37;17.73;;;10.30;84.30;;;;;;5017103;28;20066;-76
2021/05/28 04:54:26;;;;;;;28.10;16.33;;;10.30;84.40;;;;;;5018723;28;20028;-77
2021/05/28 04:56:52;;;;;;;30.00;16.27;;;10.20;84.40;;;;;;5019571;28;20068;-76
2021/05/28 04:59:18;;;;;;;29.37;19.50;;;10.10;84.70;;;;;;5018374;28;20033;-76
2021/05/28 05:01:43;;;;;;;28.53;20.03;;;10.00;85.00;;;;;;5008204;28;20035;-76
2021/05/28 05:04:09;;;;;;;36.00;16.40;;;10.20;85.40;;;;;;5009436;28;20118;-75
2021/05/28 05:06:35;;;;;;;32.47;18.33;;;10.10;85.10;;;;;;5009235;28;20515;-76
2021/05/28 05:09:00;;;;;;;37.67;18.80;;;9.80;85.60;;;;;;5007949;28;20459;-76
2021/05/28 05:11:26;;;;;;;32.33;18.77;;;9.70;86.40;;;;;;5011638;28;20030;-75
2021/05/28 05:13:51;;;;;;;39.70;20.70;;;9.70;86.60;;;;;;4996355;28;20045;-75
2021/05/28 05:16:17;;;;;;;35.30;22.57;;;9.80;86.60;;;;;;5021553;28;20038;-76
2021/05/28 05:18:45;;;;;;;42.07;26.90;;;9.70;86.90;;;;;;5037345;28;20120;-76
2021/05/28 05:21:10;;;;;;;31.37;19.10;;;10.00;87.20;;;;;;5013149;28;20120;-78
2021/05/28 05:23:39;;;;;;;39.20;19.43;;;10.10;86.30;;;;;;5012664;28;20113;-76
2021/05/28 05:26:05;;;;;;;43.93;26.17;;;9.90;86.20;;;;;;4982841;28;20057;-75
2021/05/28 05:28:31;;;;;;;32.30;20.97;;;10.00;87.00;;;;;;4993110;28;20034;-76
2021/05/28 05:30:57;;;;;;;32.43;18.70;;;10.20;86.50;;;;;;4992470;28;20031;-75
2021/05/28 05:33:22;;;;;;;102.63;20.00;;;10.00;86.10;;;;;;4975234;28;20034;-76
2021/05/28 05:35:48;;;;;;;42.27;21.90;;;9.80;86.10;;;;;;4996573;28;20028;-76
2021/05/28 05:38:18;;;;;;;45.00;22.10;;;9.60;87.00;;;;;;5012460;28;20041;-79
2021/05/28 05:40:44;;;;;;;53.97;20.63;;;9.80;87.60;;;;;;5011613;28;20030;-75
2021/05/28 05:43:10;;;;;;;150.13;23.60;;;9.80;87.40;;;;;;5011921;28;20036;-76
2021/05/28 05:45:35;;;;;;;64.37;28.57;;;9.70;87.30;;;;;;5010819;28;20382;-75
2021/05/28 05:48:02;;;;;;;61.03;31.57;;;9.60;87.80;;;;;;5010930;28;20136;-74
2021/05/28 05:50:28;;;;;;;52.97;28.57;;;10.00;88.40;;;;;;4994045;28;20064;-74
2021/05/28 05:52:53;;;;;;;58.93;30.47;;;10.40;88.20;;;;;;5010263;28;20026;-75
2021/05/28 05:55:20;;;;;;;47.07;27.43;;;10.70;87.70;;;;;;5010161;28;20045;-75
2021/05/28 05:57:46;;;;;;;40.37;23.90;;;11.20;87.50;;;;;;4995098;28;20492;-74
2021/05/28 06:00:13;;;;;;;39.53;24.40;;;11.40;86.60;;;;;;4978626;28;20052;-76
2021/05/28 06:02:38;;;;;;;41.73;17.77;;;11.70;86.00;;;;;;5009575;28;20022;-75
2021/05/28 06:05:04;;;;;;;27.07;17.40;;;11.90;84.60;;;;;;5010667;28;20367;-76
2021/05/28 06:07:30;;;;;;;27.33;18.47;;;11.80;83.50;;;;;;5010785;28;20025;-76
2021/05/28 06:09:56;;;;;;;33.47;17.00;;;12.00;83.60;;;;;;5017698;28;20084;-76
2021/05/28 06:12:22;;;;;;;24.50;16.10;;;12.20;83.20;;;;;;5002386;28;20429;-76
2021/05/28 06:14:47;;;;;;;34.97;14.33;;;12.30;81.90;;;;;;4985756;28;20486;-76
2021/05/28 06:17:13;;;;;;;30.87;14.03;;;12.20;81.30;;;;;;5006568;28;20484;-76
2021/05/28 06:19:39;;;;;;;26.37;19.27;;;11.80;81.30;;;;;;5007501;28;20463;-77
2021/05/28 06:22:04;;;;;;;29.87;20.33;;;11.90;82.30;;;;;;5021077;28;20022;-76
2021/05/28 06:24:30;;;;;;;27.73;20.03;;;12.20;82.30;;;;;;4988147;28;20598;-75
2021/05/28 06:26:55;;;;;;;28.40;21.27;;;12.20;81.30;;;;;;5003632;28;20038;-78
2021/05/28 06:29:21;;;;;;;42.97;17.87;;;12.40;81.30;;;;;;4990592;28;20390;-79
2021/05/28 06:31:47;;;;;;;34.90;15.60;;;12.30;80.80;;;;;;5016173;28;20038;-78
2021/05/28 06:34:12;;;;;;;30.30;18.00;;;12.00;80.30;;;;;;4982014;28;20041;-74
2021/05/28 06:36:38;;;;;;;71.60;16.73;;;11.70;81.00;;;;;;4997272;28;20026;-75
2021/05/28 06:39:07;;;;;;;31.50;21.93;;;11.60;81.40;;;;;;5012415;28;20030;-76
2021/05/28 06:41:33;;;;;;;33.00;23.90;;;11.60;81.90;;;;;;5013907;28;20026;-76
2021/05/28 06:43:59;;;;;;;31.60;24.07;;;11.90;82.20;;;;;;5017202;28;20041;-73
2021/05/28 06:46:24;;;;;;;70.47;13.57;;;12.20;81.90;;;;;;5003362;28;20041;-78
2021/05/28 06:48:52;;;;;;;30.33;19.27;;;12.10;79.80;;;;;;4985643;28;20474;-74
2021/05/28 06:51:18;;;;;;;25.80;18.70;;;11.80;80.70;;;;;;5004489;28;20042;-75
2021/05/28 06:53:43;;;;;;;26.50;15.53;;;11.80;81.40;;;;;;5021254;28;20037;-75
2021/05/28 06:56:09;;;;;;;27.13;21.20;;;11.80;81.20;;;;;;5019877;28;20434;-75
2021/05/28 06:58:35;;;;;;;20.03;15.07;;;11.90;81.80;;;;;;5023050;28;20050;-76
2021/05/28 07:01:00;;;;;;;22.30;13.00;;;11.90;81.20;;;;;;5023452;28;20030;-76
2021/05/28 07:03:26;;;;;;;22.93;16.00;;;11.90;81.20;;;;;;5015704;28;20037;-79
2021/05/28 07:05:52;;;;;;;26.47;19.20;;;11.90;81.70;;;;;;5009080;28;20470;-78
2021/05/28 07:08:17;;;;;;;23.63;18.03;;;12.20;81.70;;;;;;5009950;28;20040;-75
2021/05/28 07:10:43;;;;;;;22.63;17.30;;;12.50;81.20;;;;;;4981621;28;20761;-75
2021/05/28 07:13:09;;;;;;;24.83;18.17;;;12.70;80.70;;;;;;5010311;28;20070;-75
2021/05/28 07:15:37;;;;;;;42.47;12.83;;;12.90;79.90;;;;;;5009733;28;20471;-75
2021/05/28 07:18:04;;;;;;;21.37;14.90;;;12.70;78.60;;;;;;4995853;28;20041;-74
2021/05/28 07:20:30;;;;;;;20.60;12.53;;;12.40;79.30;;;;;;5011239;28;20038;-77
2021/05/28 07:22:55;;;;;;;15.43;12.60;;;12.50;79.00;;;;;;5014294;28;20037;-76
2021/05/28 07:25:21;;;;;;;24.07;16.70;;;12.00;78.80;;;;;;5015114;28;20434;-75
2021/05/28 07:27:47;;;;;;;22.13;17.30;;;12.10;79.90;;;;;;4994508;28;20069;-75
2021/05/28 07:30:13;;;;;;;19.03;14.80;;;12.50;80.00;;;;;;4996489;28;20031;-76
2021/05/28 07:32:39;;;;;;;15.00;13.43;;;12.60;79.10;;;;;;5004127;28;20022;-76
2021/05/28 07:35:07;;;;;;;27.70;12.83;;;12.60;78.20;;;;;;5016175;28;20088;-76
2021/05/28 07:37:33;;;;;;;18.03;14.00;;;12.40;77.80;;;;;;4999983;28;20080;-76
2021/05/28 07:39:59;;;;;;;19.63;15.80;;;12.20;78.50;;;;;;5016435;28;20471;-76
2021/05/28 07:42:25;;;;;;;19.63;16.23;;;12.30;78.90;;;;;;5016080;28;20037;-75
2021/05/28 07:44:51;;;;;;;26.20;21.57;;;12.60;78.30;;;;;;5016723;28;20034;-75
2021/05/28 07:47:17;;;;;;;28.87;22.77;;;13.10;78.20;;;;;;4984288;28;20061;-77
2021/05/28 07:49:42;;;;;;;25.20;20.83;;;13.50;77.50;;;;;;5016992;28;20026;-75
2021/05/28 07:52:09;;;;;;;25.95;19.45;;;14.00;76.30;;;;;;4998097;28;20030;-77
2021/05/28 07:54:35;;;;;;;21.00;16.73;;;14.30;75.60;;;;;;5015024;28;20100;-78
2021/05/28 07:57:01;;;;;;;18.90;16.13;;;14.60;74.40;;;;;;5013682;28;20096;-77
2021/05/28 07:59:27;;;;;;;25.90;18.90;;;14.90;73.30;;;;;;4997382;28;20026;-77
2021/05/28 08:01:53;;;;;;;26.40;20.67;;;15.20;72.20;;;;;;4980264;28;20168;-77
2021/05/28 08:04:18;;;;;;;20.67;17.85;;;15.50;71.30;;;;;;4981062;28;20462;-76
2021/05/28 08:06:44;;;;;;;19.67;17.58;;;15.70;70.00;;;;;;5012317;28;20465;-77
2021/05/28 08:09:10;;;;;;;16.63;14.52;;;15.90;70.00;;;;;;5013236;28;20038;-77
2021/05/28 08:11:35;;;;;;;19.73;17.55;;;16.00;68.50;;;;;;5012007;28;20037;-78
2021/05/28 08:14:01;;;;;;;18.90;16.88;;;16.30;68.30;;;;;;5013391;28;20030;-78
2021/05/28 08:16:27;;;;;;;17.58;15.70;;;16.50;67.30;;;;;;4994342;28;20470;-76
2021/05/28 08:18:53;;;;;;;17.70;14.80;;;16.70;66.80;;;;;;4993074;28;20026;-76
2021/05/28 08:21:18;;;;;;;16.25;14.65;;;16.90;65.70;;;;;;5000319;28;20026;-76
2021/05/28 08:23:44;;;;;;;16.95;15.25;;;17.00;65.00;;;;;;5012617;28;20026;-75
2021/05/28 08:26:10;;;;;;;17.27;14.82;;;16.80;64.80;;;;;;5012120;28;20121;-75
2021/05/28 08:28:36;;;;;;;15.05;13.45;;;16.60;64.30;;;;;;5012290;28;20068;-79
2021/05/28 08:31:04;;;;;;;17.00;14.80;;;16.50;65.20;;;;;;5013646;28;20026;-77
2021/05/28 08:33:29;;;;;;;15.23;13.63;;;16.60;65.20;;;;;;5011234;28;20113;-75
2021/05/28 08:35:55;;;;;;;13.48;12.07;;;16.70;64.90;;;;;;5011344;28;20136;-76
2021/05/28 08:38:21;;;;;;;14.80;12.45;;;16.80;65.30;;;;;;4992135;28;20038;-77
2021/05/28 08:40:46;;;;;;;14.73;12.98;;;16.80;65.10;;;;;;4960115;28;20023;-77
2021/05/28 08:43:13;;;;;;;13.73;12.30;;;16.30;65.10;;;;;;4992884;28;20035;-76
2021/05/28 08:45:44;;;;;;;14.90;12.18;;;16.30;66.90;;;;;;5006926;28;20037;-80
2021/05/28 08:48:12;;;;;;;12.52;11.32;;;16.80;65.70;;;;;;5013327;28;20072;-76
2021/05/28 08:50:39;;;;;;;12.55;10.68;;;16.90;65.00;;;;;;5012289;28;20057;-78
2021/05/28 08:53:07;;;;;;;11.68;10.15;;;17.20;64.80;;;;;;5013254;28;20026;-78
2021/05/28 08:55:35;;;;;;;12.98;11.60;;;17.60;63.50;;;;;;5013831;28;20039;-76
2021/05/28 08:58:08;;;;;;;12.43;10.38;;;17.40;62.60;;;;;;5010505;28;20593;-76
2021/05/28 09:00:35;;;;;;;12.70;11.50;;;17.70;64.40;;;;;;4992748;28;20015;-77
2021/05/28 09:03:23;;;;;;;10.10;9.10;;;18.80;63.20;;;;;;4989368;28;20117;-78
2021/05/28 09:05:50;;;;;;;8.55;7.60;;;19.00;60.30;;;;;;5010994;28;20117;-78
2021/05/28 09:08:25;;;;;;;6.93;6.10;;;19.20;62.20;;;;;;5004339;28;20029;-78
2021/05/28 09:10:53;;;;;;;6.47;5.43;;;20.20;60.20;;;;;;5008061;28;20478;-79
2021/05/28 09:13:24;;;;;;;5.95;5.13;;;20.70;57.50;;;;;;4996088;28;20070;-78
2021/05/28 09:16:10;;;;;;;6.75;5.97;;;21.20;56.90;;;;;;5011149;28;20064;-79
2021/05/28 09:18:51;;;;;;;5.47;4.20;;;21.90;56.20;;;;;;5011756;28;20038;-79
2021/05/28 09:21:36;;;;;;;6.20;4.50;;;22.40;51.60;;;;;;5011372;28;20037;-79
2021/05/28 09:24:06;;;;;;;5.82;3.63;;;22.70;52.10;;;;;;5010591;28;20034;-79
2021/05/28 09:26:34;;;;;;;6.38;3.38;;;23.20;51.20;;;;;;5011410;28;20069;-79
2021/05/28 09:29:01;;;;;;;3.85;2.70;;;23.40;47.90;;;;;;4993396;28;20033;-77
2021/05/28 09:31:29;;;;;;;5.45;3.40;;;22.50;46.60;;;;;;5010999;28;20034;-78
2021/05/28 09:33:56;;;;;;;5.00;3.25;;;21.70;48.70;;;;;;5010205;28;20056;-78
2021/05/28 09:36:24;;;;;;;3.50;3.20;;;21.60;50.00;;;;;;5006836;28;20037;-78
2021/05/28 09:38:54;;;;;;;4.03;3.60;;;21.40;50.60;;;;;;5002200;28;20120;-77
2021/05/28 09:41:57;;;;;;;4.53;3.50;;;21.50;51.80;;;;;;5002400;28;20524;-79
2021/05/28 09:44:25;;;;;;;4.50;3.72;;;21.60;51.20;;;;;;5000666;28;20046;-77
2021/05/28 09:47:14;;;;;;;4.25;2.95;;;21.30;51.00;;;;;;5002150;28;20064;-76
2021/05/28 09:49:58;;;;;;;4.03;2.03;;;20.90;51.50;;;;;;5001706;28;20061;-77
2021/05/28 09:52:32;;;;;;;2.63;1.30;;;21.20;49.40;;;;;;4999328;28;20451;-76
2021/05/28 09:55:17;;;;;;;2.78;2.25;;;20.70;48.70;;;;;;4986786;28;20425;-77
2021/05/28 09:57:44;;;;;;;2.88;1.30;;;20.70;49.20;;;;;;5005809;28;20037;-77
2021/05/28 10:00:20;;;;;;;4.68;1.95;;;21.00;49.70;;;;;;5003096;28;20259;-76
2021/05/28 10:02:47;;;;;;;2.92;1.70;;;21.30;47.50;;;;;;5004180;28;20061;-76
2021/05/28 10:05:24;;;;;;;2.72;1.35;;;21.70;49.40;;;;;;5004640;28;20121;-77
2021/05/28 10:07:51;;;;;;;2.10;1.52;;;22.30;50.20;;;;;;5000136;28;20390;-81
2021/05/28 10:10:18;;;;;;;3.17;2.17;;;22.80;47.80;;;;;;4994943;28;20100;-78
2021/05/28 10:12:48;;;;;;;3.90;2.13;;;23.20;47.00;;;;;;4981036;28;20068;-76
2021/05/28 10:15:14;;;;;;;2.85;2.35;;;23.50;45.90;;;;;;5009956;28;20096;-79
2021/05/28 10:17:40;;;;;;;5.00;2.88;;;22.90;45.70;;;;;;5008353;28;20496;-77
2021/05/28 10:20:07;;;;;;;2.85;2.65;;;22.80;47.50;;;;;;5013105;28;20052;-78
2021/05/28 10:22:33;;;;;;;3.38;2.20;;;23.50;48.30;;;;;;5020809;28;20014;-80
2021/05/28 10:25:01;;;;;;;4.95;3.20;;;23.30;46.20;;;;;;5005621;28;20053;-77
2021/05/28 10:27:27;;;;;;;5.97;3.67;;;23.60;45.20;;;;;;4994408;28;20026;-76
2021/05/28 10:29:54;;;;;;;8.00;3.05;;;23.30;45.50;;;;;;4976732;28;20021;-82
2021/05/28 10:32:21;;;;;;;5.95;2.67;;;23.00;46.40;;;;;;5009637;28;20037;-77
2021/05/28 10:35:17;;;;;;;4.80;2.72;;;23.20;48.50;;;;;;5011511;28;20061;-76
2021/05/28 10:37:45;;;;;;;5.30;2.85;;;24.00;47.50;;;;;;5010350;28;20482;-77
2021/05/28 10:40:31;;;;;;;7.72;2.90;;;23.80;44.00;;;;;;5010425;28;20018;-78
2021/05/28 10:43:01;;;;;;;6.07;3.00;;;23.60;47.30;;;;;;4991869;28;20026;-81
2021/05/28 10:45:56;;;;;;;5.68;3.30;;;23.70;46.10;;;;;;5007889;28;20040;-78
2021/05/28 10:48:41;;;;;;;3.80;2.92;;;23.00;45.70;;;;;;5008842;28;20062;-79
2021/05/28 10:51:13;;;;;;;3.88;3.08;;;22.20;47.20;;;;;;5006606;28;20026;-80
2021/05/28 10:53:41;;;;;;;12.30;3.05;;;22.10;49.00;;;;;;5009446;28;20022;-77
2021/05/28 10:56:13;;;;;;;5.30;2.80;;;22.30;47.60;;;;;;5008974;28;20037;-79
2021/05/28 10:58:59;;;;;;;4.93;2.43;;;22.70;48.00;;;;;;5009304;28;20159;-79
2021/05/28 11:01:45;;;;;;;4.97;2.50;;;23.30;48.50;;;;;;4987176;28;20326;-80
2021/05/28 11:04:12;;;;;;;2.00;1.40;;;24.10;46.90;;;;;;5009195;28;20053;-80
2021/05/28 11:07:00;;;;;;;3.08;1.52;;;23.20;41.80;;;;;;5009372;28;20033;-81
2021/05/28 11:09:36;;;;;;;1.88;1.30;;;23.00;43.60;;;;;;5009724;28;20025;-80
2021/05/28 11:12:03;;;;;;;3.72;2.25;;;22.50;43.40;;;;;;4992842;28;20029;-78
2021/05/28 11:14:29;;;;;;;4.57;3.25;;;22.10;44.10;;;;;;4994022;28;20037;-80
2021/05/28 11:16:55;;;;;;;4.75;4.25;;;21.90;47.80;;;;;;4993254;28;20470;-78
2021/05/28 11:19:30;;;;;;;5.22;3.20;;;21.40;48.90;;;;;;5010670;28;20041;-77
2021/05/28 11:21:59;;;;;;;4.90;2.88;;;21.30;50.10;;;;;;4994314;28;20037;-78
2021/05/28 11:24:51;;;;;;;2.58;1.63;;;21.70;50.40;;;;;;5008603;28;20054;-79
2021/05/28 11:27:20;;;;;;;3.20;1.70;;;22.00;45.40;;;;;;5008994;28;20049;-76
2021/05/28 11:29:52;;;;;;;5.13;1.73;;;22.20;47.00;;;;;;5007943;28;20041;-81
2021/05/28 11:32:32;;;;;;;2.55;2.08;;;22.70;46.30;;;;;;5007833;28;20026;-77
2021/05/28 11:35:22;;;;;;;4.50;2.90;;;22.70;44.00;;;;;;5009241;28;20029;-80
2021/05/28 11:37:49;;;;;;;6.78;1.75;;;22.40;44.40;;;;;;5008679;28;20029;-80
2021/05/28 11:40:23;;;;;;;4.07;2.30;;;22.40;46.60;;;;;;5010258;28;20022;-76
2021/05/28 11:42:49;;;;;;;3.13;2.08;;;22.80;45.90;;;;;;5009319;28;20105;-76
2021/05/28 11:45:17;;;;;;;5.55;2.17;;;23.20;46.20;;;;;;5009149;28;20467;-77
2021/05/28 11:47:43;;;;;;;5.07;3.85;;;23.50;44.20;;;;;;5010812;28;20116;-79
2021/05/28 11:50:17;;;;;;;7.22;3.50;;;23.50;42.80;;;;;;5008671;28;20117;-79
2021/05/28 11:53:04;;;;;;;4.38;3.65;;;23.20;44.10;;;;;;5000404;28;20110;-77
2021/05/28 11:55:31;;;;;;;4.78;3.78;;;22.80;42.90;;;;;;5009376;28;20041;-77
2021/05/28 11:57:59;;;;;;;4.25;3.03;;;22.00;44.70;;;;;;5010614;28;20113;-76
2021/05/28 12:00:26;;;;;;;3.30;2.28;;;21.50;45.00;;;;;;5008808;28;20030;-77
2021/05/28 12:02:56;;;;;;;2.88;2.10;;;21.10;45.90;;;;;;5009049;28;20021;-75
2021/05/28 12:05:29;;;;;;;4.18;3.05;;;21.20;46.20;;;;;;5008249;28;20112;-76
2021/05/28 12:07:58;;;;;;;2.22;2.03;;;21.50;45.60;;;;;;5009839;28;20034;-76
2021/05/28 12:10:25;;;;;;;3.05;2.15;;;21.20;45.30;;;;;;5012933;28;20073;-76
2021/05/28 12:12:50;;;;;;;4.10;2.25;;;20.70;46.30;;;;;;5013500;28;20042;-76
2021/05/28 12:15:18;;;;;;;3.58;1.60;;;20.40;46.80;;;;;;5012967;28;20041;-77
2021/05/28 12:17:44;;;;;;;2.90;1.33;;;19.90;47.70;;;;;;5013040;28;20034;-75
2021/05/28 12:20:21;;;;;;;3.13;1.75;;;20.30;47.30;;;;;;5013801;28;20030;-76
2021/05/28 12:23:05;;;;;;;3.53;1.60;;;20.10;46.50;;;;;;5013051;28;20390;-77
2021/05/28 12:25:37;;;;;;;2.28;1.42;;;20.40;47.30;;;;;;5012129;28;20116;-77
2021/05/28 12:28:11;;;;;;;1.90;1.30;;;20.30;48.10;;;;;;5012864;28;20037;-76
2021/05/28 12:30:38;;;;;;;1.80;0.95;;;21.00;48.80;;;;;;5012974;28;20038;-76
2021/05/28 12:33:04;;;;;;;1.73;0.60;;;21.30;46.20;;;;;;5012846;28;20018;-77
2021/05/28 12:35:30;;;;;;;2.08;0.77;;;21.10;43.70;;;;;;5013187;28;20042;-78
2021/05/28 12:38:12;;;;;;;4.95;0.88;;;20.80;43.20;;;;;;4996536;28;20085;-77
2021/05/28 12:40:46;;;;;;;1.40;0.70;;;20.90;42.00;;;;;;5014685;28;20025;-77
2021/05/28 12:43:33;;;;;;;1.75;1.13;;;21.10;42.20;;;;;;5012275;28;20512;-77
2021/05/28 12:46:00;;;;;;;1.95;1.17;;;21.20;41.90;;;;;;5011552;28;20046;-77
2021/05/28 12:48:49;;;;;;;3.38;1.45;;;21.30;42.00;;;;;;5011638;28;20030;-76